Terminal Aerodrome Forecast
Issued by NWS Boston, MA

Home | Current Version | Previous Version | Text Only | Print | Product List | Glossary On
Versions: 1 2 3 4 5 6 7 8 9 10 11 12 13 14 15 16 17 18 19 20 21 22 23 24 25 26 27 28 29 30
000
FTUS41 KBOX 201728
TAFORH
TAF
KORH 201728Z 2018/2118 24010G17KT P6SM SCT110
     FM202100 24007KT P6SM BKN110
     FM211200 23005KT P6SM OVC015
     FM211400 12005KT P6SM OVC015=

USA.gov is the U.S. government's official web portal to all federal, state and local government web resources and services.